createdAt,value
2024-03-16T00:00:59.212Z,52.07
2024-03-16T00:03:27.744Z,52.02
2024-03-16T00:05:56.130Z,51.93
2024-03-16T00:08:24.632Z,52.25
2024-03-16T00:10:53.116Z,52.24
2024-03-16T00:13:21.589Z,52.25
2024-03-16T00:15:51.175Z,52.17
2024-03-16T00:18:19.657Z,52.43
2024-03-16T00:20:48.053Z,52.51
2024-03-16T00:23:16.503Z,52.51
2024-03-16T00:25:44.875Z,52.39
2024-03-16T00:28:13.505Z,52.46
2024-03-16T00:30:41.990Z,52.69
2024-03-16T00:33:10.420Z,52.70
2024-03-16T00:35:38.881Z,52.57
2024-03-16T00:38:07.339Z,52.52
2024-03-16T00:40:35.773Z,52.82
2024-03-16T00:43:05.622Z,52.56
2024-03-16T00:45:34.302Z,52.73
2024-03-16T00:48:05.471Z,52.89
2024-03-16T00:50:34.090Z,52.71
2024-03-16T00:53:02.775Z,52.59
2024-03-16T00:55:32.912Z,52.63
2024-03-16T00:58:01.515Z,52.72
2024-03-16T01:00:32.212Z,52.67
2024-03-16T01:03:00.739Z,52.67
2024-03-16T01:05:29.979Z,52.72
2024-03-16T01:07:58.593Z,52.82
2024-03-16T01:10:26.996Z,52.85
2024-03-16T01:12:55.462Z,53.00
2024-03-16T01:15:24.048Z,53.14
2024-03-16T01:17:52.664Z,53.30
2024-03-16T01:20:21.802Z,53.04
2024-03-16T01:22:50.184Z,53.09
2024-03-16T01:25:18.626Z,53.36
2024-03-16T01:27:47.337Z,53.45
2024-03-16T01:30:17.482Z,53.55
2024-03-16T01:32:45.913Z,53.62
2024-03-16T01:35:14.454Z,53.91
2024-03-16T01:37:42.919Z,53.91
2024-03-16T01:40:11.791Z,54.14
2024-03-16T01:42:40.274Z,54.42
2024-03-16T01:45:09.485Z,54.60
2024-03-16T01:47:38.037Z,54.63
2024-03-16T01:50:06.868Z,54.43
2024-03-16T01:52:35.304Z,54.61
2024-03-16T01:55:05.395Z,54.62
2024-03-16T01:57:33.996Z,54.73
2024-03-16T02:00:03.414Z,54.75
2024-03-16T02:02:33.018Z,55.10
2024-03-16T02:05:02.684Z,55.09
2024-03-16T02:07:31.119Z,55.19
2024-03-16T02:10:00.077Z,55.24
2024-03-16T02:12:28.578Z,55.13
2024-03-16T02:14:57.442Z,55.44
2024-03-16T02:17:25.930Z,55.49
2024-03-16T02:19:54.400Z,55.55
2024-03-16T02:22:22.838Z,55.70
2024-03-16T02:24:51.271Z,56.06
2024-03-16T02:27:21.511Z,56.61
2024-03-16T02:29:50.138Z,56.96
2024-03-16T02:32:18.528Z,57.19
2024-03-16T02:34:47.100Z,57.21
2024-03-16T02:37:16.033Z,57.52
2024-03-16T02:39:44.490Z,58.01
2024-03-16T02:42:12.964Z,58.07
2024-03-16T02:44:42.149Z,58.29
2024-03-16T02:47:11.594Z,58.64
2024-03-16T02:49:41.726Z,58.70
2024-03-16T02:52:12.052Z,58.52
2024-03-16T02:54:40.700Z,58.32
2024-03-16T02:57:10.138Z,57.59
2024-03-16T02:59:38.556Z,57.26
2024-03-16T03:02:07.031Z,57.11
2024-03-16T03:04:35.997Z,57.16
2024-03-16T03:07:05.919Z,57.26
2024-03-16T03:09:35.283Z,57.10
2024-03-16T03:12:05.963Z,57.42
2024-03-16T03:14:34.480Z,57.41
2024-03-16T03:17:02.909Z,57.55
2024-03-16T03:19:31.728Z,57.44
2024-03-16T03:22:00.232Z,57.41
2024-03-16T03:24:28.716Z,57.51
2024-03-16T03:26:57.100Z,57.51
2024-03-16T03:29:25.653Z,57.76
2024-03-16T03:31:55.092Z,57.70
2024-03-16T03:34:23.545Z,57.81
2024-03-16T03:36:51.959Z,57.77
2024-03-16T03:39:20.493Z,57.78
2024-03-16T03:41:48.936Z,57.93
2024-03-16T03:44:37.002Z,57.98
2024-03-16T03:47:05.804Z,58.13
2024-03-16T03:49:36.948Z,58.15
2024-03-16T03:52:06.559Z,58.39
2024-03-16T03:54:36.231Z,58.39
2024-03-16T03:57:05.653Z,58.25
2024-03-16T03:59:34.318Z,58.27
2024-03-16T04:02:02.843Z,58.20
2024-03-16T04:04:31.300Z,58.09
2024-03-16T04:06:59.689Z,57.84
2024-03-16T04:09:28.229Z,57.59
2024-03-16T04:11:56.661Z,57.56
2024-03-16T04:14:25.092Z,57.57
2024-03-16T04:16:53.509Z,57.58
2024-03-16T04:19:22.005Z,57.64
2024-03-16T04:21:51.435Z,57.48
2024-03-16T04:24:20.188Z,57.32
2024-03-16T04:26:48.653Z,57.32
2024-03-16T04:29:17.564Z,57.30
2024-03-16T04:31:47.104Z,57.29
2024-03-16T04:34:15.640Z,57.20
2024-03-16T04:36:44.181Z,57.19
2024-03-16T04:39:12.636Z,57.35
2024-03-16T04:41:41.039Z,57.39
2024-03-16T04:44:09.542Z,57.31
2024-03-16T04:46:37.964Z,57.34
2024-03-16T04:49:06.912Z,57.28
2024-03-16T04:51:35.388Z,57.06
2024-03-16T04:54:03.903Z,57.12
2024-03-16T04:56:32.359Z,57.27
2024-03-16T04:59:00.739Z,57.34
2024-03-16T05:01:29.227Z,57.27
2024-03-16T05:03:57.934Z,57.25
2024-03-16T05:06:26.869Z,57.16
2024-03-16T05:08:55.309Z,57.33
2024-03-16T05:11:23.781Z,57.27
2024-03-16T05:13:52.280Z,57.17
2024-03-16T05:16:20.713Z,57.32
2024-03-16T05:18:49.475Z,57.42
2024-03-16T05:21:17.890Z,57.53
2024-03-16T05:23:47.051Z,57.41
2024-03-16T05:26:15.697Z,57.58
2024-03-16T05:28:44.078Z,57.50
2024-03-16T05:31:12.754Z,57.24
2024-03-16T05:33:41.285Z,57.16
2024-03-16T05:36:10.889Z,57.13
2024-03-16T05:38:39.347Z,57.19
2024-03-16T05:41:07.989Z,57.23
2024-03-16T05:43:36.402Z,57.28
2024-03-16T05:46:04.953Z,57.19
2024-03-16T05:48:33.492Z,57.20
2024-03-16T05:51:02.765Z,56.97
2024-03-16T05:53:31.212Z,56.84
2024-03-16T05:55:59.946Z,56.74
2024-03-16T05:58:29.942Z,56.55
2024-03-16T06:00:58.654Z,56.46
2024-03-16T06:03:28.442Z,56.29
2024-03-16T06:05:56.933Z,56.24
2024-03-16T06:08:25.325Z,55.87
2024-03-16T06:10:53.753Z,55.86
2024-03-16T06:13:22.256Z,55.26
2024-03-16T06:15:50.701Z,54.97
2024-03-16T06:18:20.061Z,54.96
2024-03-16T06:20:49.766Z,54.59
2024-03-16T06:23:18.194Z,54.54
2024-03-16T06:25:50.190Z,54.52
2024-03-16T06:28:20.559Z,54.50
2024-03-16T06:30:53.405Z,53.58
2024-03-16T06:33:28.623Z,53.45
2024-03-16T06:35:57.245Z,53.78
2024-03-16T06:38:25.696Z,53.56
2024-03-16T06:40:54.834Z,53.65
2024-03-16T06:43:23.219Z,53.57
2024-03-16T06:45:51.867Z,53.43
2024-03-16T06:48:20.353Z,53.40
2024-03-16T06:50:50.786Z,53.30
2024-03-16T06:53:19.326Z,53.32
2024-03-16T06:55:50.625Z,53.22
2024-03-16T06:58:19.163Z,53.23
2024-03-16T07:00:47.619Z,52.90
2024-03-16T07:03:16.880Z,53.06
2024-03-16T07:05:45.259Z,53.00
2024-03-16T07:08:17.177Z,53.10
2024-03-16T07:10:45.904Z,52.79
2024-03-16T07:13:14.621Z,52.82
2024-03-16T07:15:45.267Z,52.62
2024-03-16T07:18:13.993Z,52.65
2024-03-16T07:20:42.819Z,52.24
2024-03-16T07:23:11.260Z,51.74
2024-03-16T07:25:39.721Z,51.62
2024-03-16T07:28:09.534Z,51.26
2024-03-16T07:30:38.104Z,51.01
2024-03-16T07:33:06.763Z,50.79
2024-03-16T07:35:36.462Z,50.79
2024-03-16T07:38:05.994Z,50.60
2024-03-16T07:40:34.520Z,50.28
2024-03-16T07:43:03.914Z,49.65
2024-03-16T07:45:32.919Z,50.02
2024-03-16T07:48:01.452Z,49.57
2024-03-16T07:50:29.932Z,49.53
2024-03-16T07:52:58.293Z,49.16
2024-03-16T07:55:26.755Z,49.24
2024-03-16T07:57:55.242Z,48.51
2024-03-16T08:00:23.686Z,48.83
2024-03-16T08:02:52.115Z,48.35
2024-03-16T08:05:20.571Z,46.97
2024-03-16T08:07:49.160Z,47.11
2024-03-16T08:10:18.398Z,46.93
2024-03-16T08:12:47.137Z,46.95
2024-03-16T08:15:15.654Z,46.91
2024-03-16T08:17:44.061Z,46.89
2024-03-16T08:20:16.403Z,46.67
2024-03-16T08:22:49.614Z,46.51
2024-03-16T08:25:18.738Z,46.61
2024-03-16T08:27:47.246Z,46.72
2024-03-16T08:30:15.774Z,46.30
2024-03-16T08:32:44.447Z,46.28
2024-03-16T08:35:12.889Z,46.26
2024-03-16T08:37:41.288Z,45.59
2024-03-16T08:40:13.683Z,45.71
2024-03-16T08:42:42.730Z,45.16
2024-03-16T08:45:12.147Z,44.86
2024-03-16T08:47:42.801Z,45.18
2024-03-16T08:50:10.799Z,45.57
2024-03-16T08:52:39.451Z,46.39
2024-03-16T08:55:11.421Z,47.45
2024-03-16T08:57:39.950Z,47.79
2024-03-16T09:00:10.441Z,48.18
2024-03-16T09:02:38.953Z,48.30
2024-03-16T09:05:09.513Z,48.50
2024-03-16T09:07:39.715Z,48.64
2024-03-16T09:10:09.159Z,48.78
2024-03-16T09:12:37.662Z,48.62
2024-03-16T09:15:07.649Z,48.21
2024-03-16T09:17:36.191Z,48.18
2024-03-16T09:20:09.247Z,47.73
2024-03-16T09:22:38.036Z,46.86
2024-03-16T09:25:07.780Z,46.80
2024-03-16T09:27:36.758Z,45.38
2024-03-16T09:30:07.389Z,45.09
2024-03-16T09:32:38.136Z,44.86
2024-03-16T09:35:07.477Z,44.35
2024-03-16T09:37:38.088Z,43.39
2024-03-16T09:40:11.386Z,42.68
2024-03-16T09:42:40.282Z,42.86
